sensor_id;sensor_type;location;lat;lon;timestamp;P1;durP1;ratioP1;P2;durP2;ratioP2
76292;SDS011;67256;51.154;4.164;2023-03-31T00:00:56;11.35;;;2.95;;
76292;SDS011;67256;51.154;4.164;2023-03-31T00:03:24;12.20;;;3.03;;
76292;SDS011;67256;51.154;4.164;2023-03-31T00:05:55;11.60;;;2.65;;
76292;SDS011;67256;51.154;4.164;2023-03-31T00:08:22;12.30;;;3.05;;
76292;SDS011;67256;51.154;4.164;2023-03-31T00:10:48;10.90;;;2.70;;
76292;SDS011;67256;51.154;4.164;2023-03-31T00:13:14;15.05;;;3.10;;
76292;SDS011;67256;51.154;4.164;2023-03-31T00:15:41;19.67;;;4.07;;
76292;SDS011;67256;51.154;4.164;2023-03-31T00:18:08;15.75;;;3.85;;
76292;SDS011;67256;51.154;4.164;2023-03-31T00:20:34;19.65;;;3.38;;
76292;SDS011;67256;51.154;4.164;2023-03-31T00:23:02;18.77;;;3.30;;
76292;SDS011;67256;51.154;4.164;2023-03-31T00:25:35;13.02;;;3.03;;
76292;SDS011;67256;51.154;4.164;2023-03-31T00:28:05;15.27;;;2.75;;
76292;SDS011;67256;51.154;4.164;2023-03-31T00:30:31;13.05;;;4.68;;
76292;SDS011;67256;51.154;4.164;2023-03-31T00:32:57;15.27;;;3.65;;
76292;SDS011;67256;51.154;4.164;2023-03-31T00:35:22;19.33;;;3.78;;
76292;SDS011;67256;51.154;4.164;2023-03-31T00:37:49;17.17;;;3.40;;
76292;SDS011;67256;51.154;4.164;2023-03-31T00:40:15;18.48;;;3.55;;
76292;SDS011;67256;51.154;4.164;2023-03-31T00:42:41;20.50;;;4.10;;
76292;SDS011;67256;51.154;4.164;2023-03-31T00:48:27;23.13;;;5.07;;
76292;SDS011;67256;51.154;4.164;2023-03-31T00:50:36;16.20;;;3.10;;
76292;SDS011;67256;51.154;4.164;2023-03-31T00:53:09;20.08;;;3.28;;
76292;SDS011;67256;51.154;4.164;2023-03-31T00:55:40;20.60;;;3.95;;
76292;SDS011;67256;51.154;4.164;2023-03-31T00:58:12;18.00;;;3.70;;
76292;SDS011;67256;51.154;4.164;2023-03-31T01:00:44;11.38;;;2.28;;
76292;SDS011;67256;51.154;4.164;2023-03-31T01:03:16;16.88;;;3.35;;
76292;SDS011;67256;51.154;4.164;2023-03-31T01:05:46;19.25;;;3.42;;
76292;SDS011;67256;51.154;4.164;2023-03-31T01:08:17;18.98;;;3.10;;
76292;SDS011;67256;51.154;4.164;2023-03-31T01:10:45;15.35;;;4.10;;
76292;SDS011;67256;51.154;4.164;2023-03-31T01:13:15;15.52;;;3.15;;
76292;SDS011;67256;51.154;4.164;2023-03-31T01:15:42;21.83;;;4.65;;
76292;SDS011;67256;51.154;4.164;2023-03-31T01:18:09;17.05;;;3.58;;
76292;SDS011;67256;51.154;4.164;2023-03-31T01:26:17;15.60;;;3.15;;
76292;SDS011;67256;51.154;4.164;2023-03-31T01:31:53;15.20;;;3.67;;
76292;SDS011;67256;51.154;4.164;2023-03-31T01:37:48;9.48;;;2.47;;
76292;SDS011;67256;51.154;4.164;2023-03-31T01:43:23;17.75;;;3.00;;
76292;SDS011;67256;51.154;4.164;2023-03-31T01:49:13;14.00;;;2.80;;
76292;SDS011;67256;51.154;4.164;2023-03-31T01:56:51;18.80;;;3.20;;
76292;SDS011;67256;51.154;4.164;2023-03-31T01:59:26;10.65;;;2.42;;
76292;SDS011;67256;51.154;4.164;2023-03-31T02:02:05;10.65;;;2.58;;
76292;SDS011;67256;51.154;4.164;2023-03-31T02:04:45;13.70;;;3.00;;
76292;SDS011;67256;51.154;4.164;2023-03-31T02:07:18;10.35;;;2.55;;
76292;SDS011;67256;51.154;4.164;2023-03-31T02:09:52;9.63;;;2.10;;
76292;SDS011;67256;51.154;4.164;2023-03-31T02:12:23;12.40;;;3.13;;
76292;SDS011;67256;51.154;4.164;2023-03-31T02:14:51;10.52;;;2.88;;
76292;SDS011;67256;51.154;4.164;2023-03-31T02:17:21;11.50;;;2.70;;
76292;SDS011;67256;51.154;4.164;2023-03-31T02:19:56;9.98;;;2.10;;
76292;SDS011;67256;51.154;4.164;2023-03-31T02:22:26;12.23;;;3.05;;
76292;SDS011;67256;51.154;4.164;2023-03-31T02:24:56;12.15;;;2.35;;
76292;SDS011;67256;51.154;4.164;2023-03-31T02:27:25;11.50;;;3.03;;
76292;SDS011;67256;51.154;4.164;2023-03-31T02:30:12;10.20;;;2.63;;
76292;SDS011;67256;51.154;4.164;2023-03-31T02:32:39;9.95;;;2.50;;
76292;SDS011;67256;51.154;4.164;2023-03-31T02:35:16;10.23;;;3.53;;
76292;SDS011;67256;51.154;4.164;2023-03-31T02:37:45;12.48;;;2.78;;
76292;SDS011;67256;51.154;4.164;2023-03-31T02:40:16;11.43;;;2.72;;
76292;SDS011;67256;51.154;4.164;2023-03-31T02:42:44;10.90;;;2.83;;
76292;SDS011;67256;51.154;4.164;2023-03-31T02:48:13;12.43;;;3.33;;
76292;SDS011;67256;51.154;4.164;2023-03-31T03:10:52;10.63;;;2.80;;
76292;SDS011;67256;51.154;4.164;2023-03-31T03:13:08;9.10;;;2.60;;
76292;SDS011;67256;51.154;4.164;2023-03-31T03:15:59;8.88;;;3.10;;
76292;SDS011;67256;51.154;4.164;2023-03-31T03:18:43;10.65;;;3.10;;
76292;SDS011;67256;51.154;4.164;2023-03-31T03:21:16;8.82;;;3.03;;
76292;SDS011;67256;51.154;4.164;2023-03-31T03:23:42;7.80;;;2.85;;
76292;SDS011;67256;51.154;4.164;2023-03-31T03:26:08;11.90;;;3.10;;
76292;SDS011;67256;51.154;4.164;2023-03-31T03:28:34;12.30;;;3.50;;
76292;SDS011;67256;51.154;4.164;2023-03-31T03:31:00;10.18;;;3.40;;
76292;SDS011;67256;51.154;4.164;2023-03-31T03:33:27;11.70;;;3.50;;
76292;SDS011;67256;51.154;4.164;2023-03-31T03:35:52;17.58;;;3.80;;
76292;SDS011;67256;51.154;4.164;2023-03-31T03:38:19;13.07;;;4.65;;
76292;SDS011;67256;51.154;4.164;2023-03-31T03:40:45;9.93;;;4.30;;
76292;SDS011;67256;51.154;4.164;2023-03-31T03:43:11;15.20;;;3.70;;
76292;SDS011;67256;51.154;4.164;2023-03-31T03:45:37;11.50;;;3.30;;
76292;SDS011;67256;51.154;4.164;2023-03-31T03:48:03;14.07;;;3.55;;
76292;SDS011;67256;51.154;4.164;2023-03-31T03:50:30;8.43;;;3.10;;
76292;SDS011;67256;51.154;4.164;2023-03-31T03:52:59;8.90;;;2.58;;
76292;SDS011;67256;51.154;4.164;2023-03-31T03:55:25;8.00;;;2.25;;
76292;SDS011;67256;51.154;4.164;2023-03-31T03:57:53;9.10;;;2.63;;
76292;SDS011;67256;51.154;4.164;2023-03-31T04:00:18;6.07;;;2.13;;
76292;SDS011;67256;51.154;4.164;2023-03-31T04:02:45;5.45;;;2.33;;
76292;SDS011;67256;51.154;4.164;2023-03-31T04:05:11;4.18;;;1.60;;
76292;SDS011;67256;51.154;4.164;2023-03-31T04:07:37;6.05;;;1.60;;
76292;SDS011;67256;51.154;4.164;2023-03-31T04:10:03;4.45;;;1.25;;
76292;SDS011;67256;51.154;4.164;2023-03-31T04:12:29;2.88;;;1.05;;
76292;SDS011;67256;51.154;4.164;2023-03-31T04:14:55;3.60;;;0.98;;
76292;SDS011;67256;51.154;4.164;2023-03-31T04:17:21;5.55;;;1.20;;
76292;SDS011;67256;51.154;4.164;2023-03-31T04:19:57;3.03;;;0.93;;
76292;SDS011;67256;51.154;4.164;2023-03-31T04:22:28;2.83;;;0.85;;
76292;SDS011;67256;51.154;4.164;2023-03-31T04:24:59;3.45;;;0.88;;
76292;SDS011;67256;51.154;4.164;2023-03-31T04:27:26;4.28;;;1.00;;
76292;SDS011;67256;51.154;4.164;2023-03-31T04:29:52;5.95;;;1.20;;
76292;SDS011;67256;51.154;4.164;2023-03-31T04:32:19;3.28;;;0.88;;
76292;SDS011;67256;51.154;4.164;2023-03-31T04:34:46;3.70;;;0.98;;
76292;SDS011;67256;51.154;4.164;2023-03-31T04:37:15;4.85;;;0.85;;
76292;SDS011;67256;51.154;4.164;2023-03-31T04:39:42;5.55;;;1.85;;
76292;SDS011;67256;51.154;4.164;2023-03-31T04:42:10;4.72;;;0.90;;
76292;SDS011;67256;51.154;4.164;2023-03-31T04:44:37;3.92;;;1.27;;
76292;SDS011;67256;51.154;4.164;2023-03-31T04:47:04;2.95;;;1.17;;
76292;SDS011;67256;51.154;4.164;2023-03-31T04:49:31;4.13;;;1.10;;
76292;SDS011;67256;51.154;4.164;2023-03-31T04:51:57;3.33;;;0.93;;
76292;SDS011;67256;51.154;4.164;2023-03-31T04:54:23;4.47;;;1.15;;
76292;SDS011;67256;51.154;4.164;2023-03-31T04:56:49;4.38;;;1.15;;
76292;SDS011;67256;51.154;4.164;2023-03-31T04:59:15;5.05;;;1.35;;
76292;SDS011;67256;51.154;4.164;2023-03-31T05:01:41;3.03;;;0.80;;
76292;SDS011;67256;51.154;4.164;2023-03-31T05:04:10;3.85;;;0.75;;
76292;SDS011;67256;51.154;4.164;2023-03-31T05:06:36;6.07;;;1.40;;
76292;SDS011;67256;51.154;4.164;2023-03-31T05:09:01;4.45;;;1.15;;
76292;SDS011;67256;51.154;4.164;2023-03-31T05:11:27;2.70;;;1.02;;
76292;SDS011;67256;51.154;4.164;2023-03-31T05:13:53;3.33;;;1.13;;
76292;SDS011;67256;51.154;4.164;2023-03-31T05:16:19;5.78;;;2.10;;
76292;SDS011;67256;51.154;4.164;2023-03-31T05:18:45;4.35;;;2.13;;
76292;SDS011;67256;51.154;4.164;2023-03-31T05:21:12;2.83;;;1.02;;
76292;SDS011;67256;51.154;4.164;2023-03-31T05:23:40;4.68;;;1.05;;
76292;SDS011;67256;51.154;4.164;2023-03-31T05:26:06;8.68;;;1.67;;
76292;SDS011;67256;51.154;4.164;2023-03-31T05:28:33;8.57;;;1.80;;
76292;SDS011;67256;51.154;4.164;2023-03-31T05:31:00;5.63;;;1.70;;
76292;SDS011;67256;51.154;4.164;2023-03-31T05:33:27;6.53;;;1.60;;
76292;SDS011;67256;51.154;4.164;2023-03-31T05:35:53;9.52;;;2.00;;
76292;SDS011;67256;51.154;4.164;2023-03-31T05:38:20;5.93;;;1.90;;
76292;SDS011;67256;51.154;4.164;2023-03-31T05:40:46;11.77;;;3.20;;
76292;SDS011;67256;51.154;4.164;2023-03-31T05:43:12;11.00;;;2.65;;
76292;SDS011;67256;51.154;4.164;2023-03-31T05:45:38;14.73;;;2.60;;
76292;SDS011;67256;51.154;4.164;2023-03-31T05:48:04;8.32;;;2.47;;
76292;SDS011;67256;51.154;4.164;2023-03-31T05:50:31;10.38;;;2.65;;
76292;SDS011;67256;51.154;4.164;2023-03-31T05:52:56;14.77;;;2.35;;
76292;SDS011;67256;51.154;4.164;2023-03-31T05:55:23;11.82;;;2.75;;
76292;SDS011;67256;51.154;4.164;2023-03-31T05:57:50;11.88;;;2.05;;
76292;SDS011;67256;51.154;4.164;2023-03-31T06:00:16;14.27;;;3.72;;
76292;SDS011;67256;51.154;4.164;2023-03-31T06:02:42;17.40;;;3.38;;
76292;SDS011;67256;51.154;4.164;2023-03-31T06:05:08;12.82;;;2.80;;
76292;SDS011;67256;51.154;4.164;2023-03-31T06:07:34;17.15;;;3.63;;
76292;SDS011;67256;51.154;4.164;2023-03-31T06:10:00;19.58;;;2.88;;
76292;SDS011;67256;51.154;4.164;2023-03-31T06:12:26;15.48;;;3.58;;
76292;SDS011;67256;51.154;4.164;2023-03-31T06:14:52;17.30;;;3.70;;
76292;SDS011;67256;51.154;4.164;2023-03-31T06:17:18;12.80;;;2.55;;
76292;SDS011;67256;51.154;4.164;2023-03-31T06:19:44;12.82;;;3.13;;
76292;SDS011;67256;51.154;4.164;2023-03-31T06:22:10;11.45;;;2.55;;
76292;SDS011;67256;51.154;4.164;2023-03-31T06:24:35;12.00;;;4.18;;
76292;SDS011;67256;51.154;4.164;2023-03-31T06:27:01;12.65;;;3.08;;
76292;SDS011;67256;51.154;4.164;2023-03-31T06:29:28;15.48;;;3.28;;
76292;SDS011;67256;51.154;4.164;2023-03-31T06:31:54;11.15;;;3.50;;
76292;SDS011;67256;51.154;4.164;2023-03-31T06:34:20;17.42;;;3.33;;
76292;SDS011;67256;51.154;4.164;2023-03-31T06:36:46;17.33;;;3.42;;
76292;SDS011;67256;51.154;4.164;2023-03-31T06:39:13;12.30;;;3.00;;
76292;SDS011;67256;51.154;4.164;2023-03-31T06:41:39;20.23;;;3.95;;
76292;SDS011;67256;51.154;4.164;2023-03-31T06:44:04;17.48;;;3.60;;
76292;SDS011;67256;51.154;4.164;2023-03-31T06:46:31;14.55;;;3.63;;
76292;SDS011;67256;51.154;4.164;2023-03-31T06:48:57;11.00;;;3.17;;
76292;SDS011;67256;51.154;4.164;2023-03-31T06:51:22;16.10;;;3.88;;
76292;SDS011;67256;51.154;4.164;2023-03-31T06:53:48;22.80;;;5.38;;
76292;SDS011;67256;51.154;4.164;2023-03-31T06:56:14;15.18;;;3.83;;
76292;SDS011;67256;51.154;4.164;2023-03-31T06:58:40;16.90;;;4.03;;
76292;SDS011;67256;51.154;4.164;2023-03-31T07:01:06;19.25;;;3.85;;
76292;SDS011;67256;51.154;4.164;2023-03-31T07:03:32;14.52;;;3.72;;
76292;SDS011;67256;51.154;4.164;2023-03-31T07:05:59;15.55;;;3.92;;
76292;SDS011;67256;51.154;4.164;2023-03-31T07:08:25;20.23;;;5.03;;
76292;SDS011;67256;51.154;4.164;2023-03-31T07:10:55;15.57;;;4.70;;
76292;SDS011;67256;51.154;4.164;2023-03-31T07:13:23;13.57;;;5.15;;
76292;SDS011;67256;51.154;4.164;2023-03-31T07:15:50;17.35;;;4.90;;
76292;SDS011;67256;51.154;4.164;2023-03-31T07:18:16;18.23;;;3.72;;
76292;SDS011;67256;51.154;4.164;2023-03-31T07:20:43;19.92;;;4.18;;
76292;SDS011;67256;51.154;4.164;2023-03-31T07:23:12;16.50;;;3.30;;
76292;SDS011;67256;51.154;4.164;2023-03-31T07:25:38;20.20;;;4.20;;
76292;SDS011;67256;51.154;4.164;2023-03-31T07:28:04;21.63;;;3.90;;
76292;SDS011;67256;51.154;4.164;2023-03-31T07:30:30;20.75;;;4.18;;
76292;SDS011;67256;51.154;4.164;2023-03-31T07:32:57;23.67;;;4.40;;
76292;SDS011;67256;51.154;4.164;2023-03-31T07:35:23;25.25;;;4.47;;
76292;SDS011;67256;51.154;4.164;2023-03-31T07:37:49;20.63;;;4.47;;
76292;SDS011;67256;51.154;4.164;2023-03-31T07:40:18;18.52;;;4.15;;
76292;SDS011;67256;51.154;4.164;2023-03-31T07:42:47;22.38;;;4.63;;
76292;SDS011;67256;51.154;4.164;2023-03-31T07:45:14;22.98;;;4.97;;
76292;SDS011;67256;51.154;4.164;2023-03-31T07:47:41;19.75;;;4.22;;
76292;SDS011;67256;51.154;4.164;2023-03-31T07:50:08;20.80;;;3.97;;
76292;SDS011;67256;51.154;4.164;2023-03-31T07:52:35;16.25;;;4.40;;
76292;SDS011;67256;51.154;4.164;2023-03-31T07:55:00;15.35;;;3.70;;
76292;SDS011;67256;51.154;4.164;2023-03-31T07:57:27;17.25;;;4.28;;
76292;SDS011;67256;51.154;4.164;2023-03-31T07:59:53;18.52;;;3.90;;
76292;SDS011;67256;51.154;4.164;2023-03-31T08:02:19;18.10;;;4.15;;
76292;SDS011;67256;51.154;4.164;2023-03-31T08:04:45;15.52;;;5.07;;
76292;SDS011;67256;51.154;4.164;2023-03-31T08:07:12;20.75;;;4.50;;
76292;SDS011;67256;51.154;4.164;2023-03-31T08:09:39;22.00;;;4.80;;
76292;SDS011;67256;51.154;4.164;2023-03-31T08:12:07;18.35;;;4.63;;
76292;SDS011;67256;51.154;4.164;2023-03-31T08:14:33;20.92;;;5.25;;
76292;SDS011;67256;51.154;4.164;2023-03-31T08:16:58;27.05;;;5.00;;
76292;SDS011;67256;51.154;4.164;2023-03-31T08:19:25;23.83;;;5.32;;
76292;SDS011;67256;51.154;4.164;2023-03-31T08:21:51;22.05;;;4.70;;
76292;SDS011;67256;51.154;4.164;2023-03-31T08:24:19;17.38;;;4.40;;
76292;SDS011;67256;51.154;4.164;2023-03-31T08:26:45;24.63;;;4.68;;
76292;SDS011;67256;51.154;4.164;2023-03-31T08:29:10;22.92;;;4.47;;
76292;SDS011;67256;51.154;4.164;2023-03-31T08:31:36;17.83;;;4.00;;
76292;SDS011;67256;51.154;4.164;2023-03-31T08:34:03;24.00;;;4.05;;
76292;SDS011;67256;51.154;4.164;2023-03-31T08:36:29;20.65;;;3.80;;
76292;SDS011;67256;51.154;4.164;2023-03-31T08:38:56;15.48;;;3.90;;
76292;SDS011;67256;51.154;4.164;2023-03-31T08:44:28;20.60;;;3.90;;
76292;SDS011;67256;51.154;4.164;2023-03-31T08:47:00;14.23;;;3.58;;
76292;SDS011;67256;51.154;4.164;2023-03-31T08:49:32;22.65;;;5.13;;
76292;SDS011;67256;51.154;4.164;2023-03-31T08:52:06;17.98;;;3.70;;
76292;SDS011;67256;51.154;4.164;2023-03-31T08:54:43;14.43;;;3.50;;
76292;SDS011;67256;51.154;4.164;2023-03-31T08:57:17;16.95;;;4.68;;
76292;SDS011;67256;51.154;4.164;2023-03-31T08:59:48;20.15;;;4.68;;
76292;SDS011;67256;51.154;4.164;2023-03-31T09:08:19;14.10;;;3.88;;
76292;SDS011;67256;51.154;4.164;2023-03-31T09:16:58;16.33;;;3.42;;
76292;SDS011;67256;51.154;4.164;2023-03-31T09:19:40;15.38;;;3.90;;
76292;SDS011;67256;51.154;4.164;2023-03-31T09:22:21;15.93;;;3.92;;
76292;SDS011;67256;51.154;4.164;2023-03-31T09:25:02;16.73;;;3.95;;
76292;SDS011;67256;51.154;4.164;2023-03-31T09:27:42;15.85;;;3.58;;
76292;SDS011;67256;51.154;4.164;2023-03-31T09:32:35;20.83;;;4.93;;
76292;SDS011;67256;51.154;4.164;2023-03-31T09:35:16;24.58;;;5.10;;
76292;SDS011;67256;51.154;4.164;2023-03-31T09:37:49;19.90;;;3.80;;
76292;SDS011;67256;51.154;4.164;2023-03-31T09:40:17;21.05;;;4.80;;
76292;SDS011;67256;51.154;4.164;2023-03-31T09:42:58;22.35;;;4.13;;
76292;SDS011;67256;51.154;4.164;2023-03-31T09:45:28;25.50;;;5.72;;
76292;SDS011;67256;51.154;4.164;2023-03-31T09:48:14;18.92;;;5.93;;
76292;SDS011;67256;51.154;4.164;2023-03-31T09:50:54;20.80;;;3.90;;
76292;SDS011;67256;51.154;4.164;2023-03-31T09:56:07;23.00;;;5.60;;
76292;SDS011;67256;51.154;4.164;2023-03-31T09:58:42;26.67;;;5.45;;
76292;SDS011;67256;51.154;4.164;2023-03-31T10:01:10;21.35;;;5.15;;
76292;SDS011;67256;51.154;4.164;2023-03-31T10:03:51;22.27;;;4.45;;
76292;SDS011;67256;51.154;4.164;2023-03-31T10:06:19;20.60;;;5.25;;
76292;SDS011;67256;51.154;4.164;2023-03-31T10:08:48;16.83;;;4.35;;
76292;SDS011;67256;51.154;4.164;2023-03-31T10:11:16;26.67;;;5.22;;
76292;SDS011;67256;51.154;4.164;2023-03-31T10:13:49;22.70;;;5.65;;
76292;SDS011;67256;51.154;4.164;2023-03-31T10:18:55;23.48;;;6.10;;
76292;SDS011;67256;51.154;4.164;2023-03-31T10:21:59;23.38;;;4.65;;
76292;SDS011;67256;51.154;4.164;2023-03-31T10:24:38;17.15;;;3.72;;
76292;SDS011;67256;51.154;4.164;2023-03-31T10:27:06;20.83;;;5.63;;
76292;SDS011;67256;51.154;4.164;2023-03-31T10:29:46;17.90;;;4.53;;
76292;SDS011;67256;51.154;4.164;2023-03-31T10:34:52;21.13;;;4.65;;
76292;SDS011;67256;51.154;4.164;2023-03-31T10:37:24;18.33;;;4.38;;
76292;SDS011;67256;51.154;4.164;2023-03-31T10:40:01;22.48;;;4.78;;
76292;SDS011;67256;51.154;4.164;2023-03-31T10:42:33;20.95;;;4.03;;
76292;SDS011;67256;51.154;4.164;2023-03-31T10:45:17;15.50;;;4.82;;
76292;SDS011;67256;51.154;4.164;2023-03-31T10:47:54;16.73;;;3.80;;
76292;SDS011;67256;51.154;4.164;2023-03-31T10:50:28;17.17;;;4.28;;
76292;SDS011;67256;51.154;4.164;2023-03-31T10:53:03;23.27;;;5.40;;
76292;SDS011;67256;51.154;4.164;2023-03-31T10:55:41;20.88;;;4.05;;
76292;SDS011;67256;51.154;4.164;2023-03-31T10:58:21;25.20;;;4.70;;
76292;SDS011;67256;51.154;4.164;2023-03-31T11:01:02;20.25;;;5.22;;
76292;SDS011;67256;51.154;4.164;2023-03-31T11:11:57;17.05;;;3.50;;
76292;SDS011;67256;51.154;4.164;2023-03-31T11:22:56;13.25;;;2.92;;
76292;SDS011;67256;51.154;4.164;2023-03-31T11:28:41;14.27;;;3.35;;
76292;SDS011;67256;51.154;4.164;2023-03-31T11:36:44;9.98;;;3.03;;
76292;SDS011;67256;51.154;4.164;2023-03-31T11:42:12;13.60;;;3.00;;
76292;SDS011;67256;51.154;4.164;2023-03-31T11:44:47;10.25;;;2.42;;
76292;SDS011;67256;51.154;4.164;2023-03-31T11:47:38;13.90;;;2.72;;
76292;SDS011;67256;51.154;4.164;2023-03-31T11:50:09;15.13;;;3.03;;
76292;SDS011;67256;51.154;4.164;2023-03-31T11:52:39;14.73;;;3.90;;
76292;SDS011;67256;51.154;4.164;2023-03-31T11:55:16;15.20;;;3.15;;
76292;SDS011;67256;51.154;4.164;2023-03-31T11:58:02;10.48;;;3.42;;
76292;SDS011;67256;51.154;4.164;2023-03-31T12:00:36;13.95;;;2.58;;
76292;SDS011;67256;51.154;4.164;2023-03-31T12:05:47;12.73;;;2.97;;
76292;SDS011;67256;51.154;4.164;2023-03-31T12:10:59;10.45;;;2.55;;
76292;SDS011;67256;51.154;4.164;2023-03-31T12:16:27;10.00;;;2.70;;
76292;SDS011;67256;51.154;4.164;2023-03-31T12:21:58;14.10;;;3.03;;
76292;SDS011;67256;51.154;4.164;2023-03-31T12:24:34;9.65;;;2.13;;
76292;SDS011;67256;51.154;4.164;2023-03-31T12:30:09;8.05;;;2.03;;
76292;SDS011;67256;51.154;4.164;2023-03-31T12:32:41;6.72;;;1.60;;
76292;SDS011;67256;51.154;4.164;2023-03-31T12:43:10;7.45;;;1.48;;
76292;SDS011;67256;51.154;4.164;2023-03-31T12:45:59;4.45;;;1.20;;
76292;SDS011;67256;51.154;4.164;2023-03-31T12:51:37;6.18;;;1.20;;
76292;SDS011;67256;51.154;4.164;2023-03-31T12:59:38;5.88;;;1.10;;
76292;SDS011;67256;51.154;4.164;2023-03-31T13:04:41;6.88;;;1.63;;
76292;SDS011;67256;51.154;4.164;2023-03-31T13:09:57;5.43;;;1.58;;
76292;SDS011;67256;51.154;4.164;2023-03-31T13:13:00;5.10;;;1.85;;
76292;SDS011;67256;51.154;4.164;2023-03-31T13:15:31;7.15;;;1.73;;
76292;SDS011;67256;51.154;4.164;2023-03-31T13:17:58;6.28;;;1.88;;
76292;SDS011;67256;51.154;4.164;2023-03-31T13:20:30;6.32;;;1.48;;
76292;SDS011;67256;51.154;4.164;2023-03-31T13:23:02;6.05;;;1.30;;
76292;SDS011;67256;51.154;4.164;2023-03-31T13:25:50;4.40;;;1.20;;
76292;SDS011;67256;51.154;4.164;2023-03-31T13:30:53;6.40;;;1.38;;
76292;SDS011;67256;51.154;4.164;2023-03-31T13:52:10;3.10;;;0.70;;
76292;SDS011;67256;51.154;4.164;2023-03-31T14:08:49;3.15;;;1.02;;
76292;SDS011;67256;51.154;4.164;2023-03-31T14:11:41;1.98;;;0.60;;
76292;SDS011;67256;51.154;4.164;2023-03-31T14:14:11;2.78;;;0.50;;
76292;SDS011;67256;51.154;4.164;2023-03-31T14:24:56;1.27;;;0.57;;
76292;SDS011;67256;51.154;4.164;2023-03-31T14:36:12;2.72;;;0.80;;
76292;SDS011;67256;51.154;4.164;2023-03-31T14:39:05;4.50;;;1.23;;
76292;SDS011;67256;51.154;4.164;2023-03-31T14:44:04;2.80;;;0.73;;
76292;SDS011;67256;51.154;4.164;2023-03-31T14:46:32;3.78;;;0.82;;
76292;SDS011;67256;51.154;4.164;2023-03-31T14:49:19;2.35;;;1.33;;
76292;SDS011;67256;51.154;4.164;2023-03-31T14:51:53;4.07;;;0.93;;
76292;SDS011;67256;51.154;4.164;2023-03-31T14:54:23;3.53;;;1.10;;
76292;SDS011;67256;51.154;4.164;2023-03-31T14:56:50;5.72;;;1.63;;
76292;SDS011;67256;51.154;4.164;2023-03-31T15:01:46;7.20;;;0.82;;
76292;SDS011;67256;51.154;4.164;2023-03-31T15:04:15;3.47;;;0.98;;
76292;SDS011;67256;51.154;4.164;2023-03-31T15:06:45;5.03;;;0.93;;
76292;SDS011;67256;51.154;4.164;2023-03-31T15:09:20;3.60;;;1.02;;
76292;SDS011;67256;51.154;4.164;2023-03-31T15:11:55;2.03;;;0.60;;
76292;SDS011;67256;51.154;4.164;2023-03-31T15:14:31;2.40;;;0.60;;
76292;SDS011;67256;51.154;4.164;2023-03-31T15:17:00;2.85;;;0.60;;
76292;SDS011;67256;51.154;4.164;2023-03-31T15:19:28;3.58;;;1.02;;
76292;SDS011;67256;51.154;4.164;2023-03-31T15:21:56;4.68;;;0.88;;
76292;SDS011;67256;51.154;4.164;2023-03-31T15:24:28;2.83;;;0.85;;
76292;SDS011;67256;51.154;4.164;2023-03-31T15:32:30;4.13;;;0.90;;
76292;SDS011;67256;51.154;4.164;2023-03-31T15:35:00;4.45;;;0.98;;
76292;SDS011;67256;51.154;4.164;2023-03-31T15:37:31;6.15;;;1.63;;
76292;SDS011;67256;51.154;4.164;2023-03-31T15:40:08;6.53;;;1.98;;
76292;SDS011;67256;51.154;4.164;2023-03-31T15:42:52;8.18;;;1.73;;
76292;SDS011;67256;51.154;4.164;2023-03-31T15:48:31;7.50;;;2.10;;
76292;SDS011;67256;51.154;4.164;2023-03-31T15:51:00;10.55;;;2.17;;
76292;SDS011;67256;51.154;4.164;2023-03-31T15:53:45;11.75;;;2.28;;
76292;SDS011;67256;51.154;4.164;2023-03-31T15:58:59;16.00;;;2.45;;
76292;SDS011;67256;51.154;4.164;2023-03-31T16:01:31;8.75;;;2.40;;
76292;SDS011;67256;51.154;4.164;2023-03-31T16:04:00;14.63;;;2.47;;
76292;SDS011;67256;51.154;4.164;2023-03-31T16:09:09;14.55;;;2.78;;
76292;SDS011;67256;51.154;4.164;2023-03-31T16:11:51;10.13;;;2.55;;
76292;SDS011;67256;51.154;4.164;2023-03-31T16:14:36;9.98;;;2.50;;
76292;SDS011;67256;51.154;4.164;2023-03-31T16:17:12;12.98;;;2.35;;
76292;SDS011;67256;51.154;4.164;2023-03-31T16:19:50;11.70;;;2.78;;
76292;SDS011;67256;51.154;4.164;2023-03-31T16:22:21;8.70;;;1.98;;
76292;SDS011;67256;51.154;4.164;2023-03-31T16:24:52;8.48;;;2.15;;
76292;SDS011;67256;51.154;4.164;2023-03-31T16:27:18;12.45;;;2.47;;
76292;SDS011;67256;51.154;4.164;2023-03-31T16:29:44;11.45;;;2.50;;
76292;SDS011;67256;51.154;4.164;2023-03-31T16:32:12;16.27;;;3.85;;
76292;SDS011;67256;51.154;4.164;2023-03-31T16:35:13;10.00;;;3.00;;
76292;SDS011;67256;51.154;4.164;2023-03-31T16:37:32;13.10;;;2.80;;
76292;SDS011;67256;51.154;4.164;2023-03-31T16:39:58;11.52;;;2.50;;
76292;SDS011;67256;51.154;4.164;2023-03-31T16:42:24;9.27;;;2.67;;
76292;SDS011;67256;51.154;4.164;2023-03-31T16:44:51;9.40;;;2.22;;
76292;SDS011;67256;51.154;4.164;2023-03-31T16:47:16;13.23;;;2.50;;
76292;SDS011;67256;51.154;4.164;2023-03-31T16:49:42;16.00;;;2.35;;
76292;SDS011;67256;51.154;4.164;2023-03-31T16:52:08;10.65;;;2.22;;
76292;SDS011;67256;51.154;4.164;2023-03-31T16:54:34;12.27;;;2.33;;
76292;SDS011;67256;51.154;4.164;2023-03-31T16:57:00;8.77;;;1.70;;
76292;SDS011;67256;51.154;4.164;2023-03-31T16:59:26;12.05;;;2.83;;
76292;SDS011;67256;51.154;4.164;2023-03-31T17:01:52;14.48;;;2.72;;
76292;SDS011;67256;51.154;4.164;2023-03-31T17:04:17;8.57;;;2.58;;
76292;SDS011;67256;51.154;4.164;2023-03-31T17:06:44;9.73;;;2.80;;
76292;SDS011;67256;51.154;4.164;2023-03-31T17:09:10;16.83;;;3.95;;
76292;SDS011;67256;51.154;4.164;2023-03-31T17:11:36;15.88;;;4.43;;
76292;SDS011;67256;51.154;4.164;2023-03-31T17:14:02;10.68;;;2.85;;
76292;SDS011;67256;51.154;4.164;2023-03-31T17:16:29;11.25;;;2.42;;
76292;SDS011;67256;51.154;4.164;2023-03-31T17:19:02;11.95;;;4.03;;
76292;SDS011;67256;51.154;4.164;2023-03-31T17:21:29;14.75;;;2.80;;
76292;SDS011;67256;51.154;4.164;2023-03-31T17:23:54;8.77;;;2.88;;
76292;SDS011;67256;51.154;4.164;2023-03-31T17:26:20;14.40;;;3.33;;
76292;SDS011;67256;51.154;4.164;2023-03-31T17:28:47;11.32;;;3.17;;
76292;SDS011;67256;51.154;4.164;2023-03-31T17:31:14;11.68;;;3.33;;
76292;SDS011;67256;51.154;4.164;2023-03-31T17:33:42;14.43;;;3.85;;
76292;SDS011;67256;51.154;4.164;2023-03-31T17:36:08;10.50;;;2.85;;
76292;SDS011;67256;51.154;4.164;2023-03-31T17:38:35;10.10;;;3.55;;
76292;SDS011;67256;51.154;4.164;2023-03-31T17:41:04;15.90;;;3.20;;
76292;SDS011;67256;51.154;4.164;2023-03-31T17:43:30;12.75;;;3.45;;
76292;SDS011;67256;51.154;4.164;2023-03-31T17:46:04;17.25;;;4.28;;
76292;SDS011;67256;51.154;4.164;2023-03-31T17:48:31;12.43;;;3.15;;
76292;SDS011;67256;51.154;4.164;2023-03-31T17:51:02;16.88;;;4.15;;
76292;SDS011;67256;51.154;4.164;2023-03-31T17:53:33;10.38;;;3.05;;
76292;SDS011;67256;51.154;4.164;2023-03-31T17:56:00;20.48;;;3.75;;
76292;SDS011;67256;51.154;4.164;2023-03-31T17:58:28;13.88;;;3.13;;
76292;SDS011;67256;51.154;4.164;2023-03-31T18:00:54;22.45;;;3.72;;
76292;SDS011;67256;51.154;4.164;2023-03-31T18:03:19;19.48;;;5.10;;
76292;SDS011;67256;51.154;4.164;2023-03-31T18:05:46;24.10;;;4.45;;
76292;SDS011;67256;51.154;4.164;2023-03-31T18:08:11;14.43;;;3.60;;
76292;SDS011;67256;51.154;4.164;2023-03-31T18:10:37;16.95;;;3.90;;
76292;SDS011;67256;51.154;4.164;2023-03-31T18:13:03;17.77;;;4.57;;
76292;SDS011;67256;51.154;4.164;2023-03-31T18:15:29;23.95;;;4.35;;
76292;SDS011;67256;51.154;4.164;2023-03-31T18:17:55;11.80;;;3.22;;
76292;SDS011;67256;51.154;4.164;2023-03-31T18:20:20;16.20;;;3.95;;
76292;SDS011;67256;51.154;4.164;2023-03-31T18:22:47;19.25;;;5.70;;
76292;SDS011;67256;51.154;4.164;2023-03-31T18:25:13;17.35;;;4.70;;